Latest Coastal Weather Observations for Gladstone

IDQ60701

Issued at 7:32 am EST Thursday 25 August 2016 (issued every 10 minutes, with the page automatically refreshed every 10 minutes)

About coastal observations | Map of coastal stations | Coastal observations for QLD | Marine services | Other Formats
Station Details ID: 039123 Name: GLADSTONE RADAR Lat: -23.86 Lon: 151.26 Height: 74.5 m
Data from the previous 72 hours. | See also: Recent months at Gladstone
Date/Time
EST
Temp
°C
Wind Pressure Rain since
9am
mm
Weather Cloud Vis
km
Sea
Height
m
Swell
Dir  Spd
kts
Gust
kts
hPa Trend Height
m
Period
s
Dir
25/07:30am 16.7 WSW 3 6 1013.6 - 4.4 - - - - - - -
25/07:00am 16.5 W 3 6 1013.2 - 4.4 - - - - - - -
25/06:30am 16.4 CALM 0 3 1012.2 - 4.4 - - - - - - -
25/06:00am 16.4 NNW 1 3 1012.3 - 4.4 Recent precip. - - - - - -
25/05:30am 16.4 CALM 0 1 1011.1 - 4.2 - - - - - - -
25/05:00am 16.4 NW 1 5 1011.0 - 4.2 - - - - - - -
25/04:30am 16.4 W 1 5 1011.2 - 4.2 - - - - - - -
25/04:00am 16.3 WNW 1 7 1010.9 - 4.0 - - - - - - -
25/03:30am 16.4 W 3 7 1010.7 - 3.6 - - - - - - -
25/03:00am 16.6 W 5 10 1011.1 - 3.4 Recent precip. - - - - - -
25/02:30am 16.6 WNW 5 10 1010.8 - 3.4 - - - - - - -
25/02:00am 16.9 W 3 7 1011.5 - 3.2 - - - - - - -
25/01:30am 17.2 WNW 4 8 1011.8 - 2.8 - - - - - - -
25/01:00am 17.4 NW 6 10 1011.6 - 2.8 - - - - - - -
25/12:30am 17.3 NW 7 10 1011.6 - 2.8 - - - - - - -
25/12:00am 17.7 NNW 9 14 1012.1 - 2.6 Recent precip. - - - - - -
 
Date/Time
EST
Temp
°C
Wind Pressure Rain since
9am
mm
Weather Cloud Vis
km
Sea
Height
m
Swell
Dir  Spd
kts
Gust
kts
hPa Trend Height
m
Period
s
Dir
24/11:30pm 17.9 NNW 8 12 1012.2 - 2.2 - - - - - - -
24/11:00pm 17.9 NW 6 10 1012.9 - 1.8 - - - - - - -
24/10:30pm 18.3 NW 3 5 1011.4 - 1.4 - - - - - - -
24/10:00pm 18.3 CALM 0 0 1011.3 - 1.4 - - - - - - -
24/09:30pm 19.1 W 1 3 1011.7 - 1.2 - - - - - - -
24/09:00pm 20.0 CALM 0 0 1011.5 - 1.0 - - - - - - -
24/08:30pm 20.1 CALM 0 3 1011.3 - 1.0 - - - - - - -
24/08:00pm 20.3 WNW 1 4 1011.3 - 1.0 - - - - - - -
24/07:30pm 20.3 WNW 1 4 1010.6 - 1.0 - - - - - - -
24/07:00pm 20.4 WSW 1 4 1010.1 - 1.0 - - - - - - -
24/06:30pm 20.5 CALM 0 3 1009.9 - 1.0 - - - - - - -
24/06:00pm 20.7 W 1 4 1009.5 - 1.0 - - - - - - -
24/05:30pm 20.9 WSW 6 15 1009.6 - 1.0 - - - - - - -
24/05:00pm 21.2 WSW 8 13 1009.6 - 1.0 - - - - - - -
24/04:30pm 21.6 WSW 8 15 1009.3 - 1.0 - - - - - - -
24/04:00pm 22.1 WSW 10 22 1009.2 - 1.0 - - - - - - -
24/03:30pm 22.2 WSW 7 18 1009.1 - 1.0 - - - - - - -
24/03:00pm 21.7 WSW 6 9 1008.5 - 1.0 - - - - - - -
24/02:30pm 21.4 WSW 7 14 1008.5 - 1.0 - - - - - - -
24/02:00pm 22.4 WSW 5 10 1008.3 - 1.0 - - - - - - -
24/01:30pm 25.2 WNW 8 16 1008.1 - 0.0 - - - - - - -
24/01:00pm 25.3 NW 9 18 1008.4 - 0.0 - - - - - - -
24/12:30pm 26.0 WNW 7 17 1008.7 - 0.0 - - - - - - -
24/12:00pm 25.3 NW 9 15 1009.1 - 0.0 - - - - - - -
24/11:30am 25.9 NW 9 19 1009.6 - 0.0 - - - - - - -
24/11:00am 25.6 NW 9 17 1010.2 - 0.0 - - - - - - -
24/10:30am 24.9 NW 10 18 1010.7 - 0.0 - - - - - - -
24/10:00am 24.5 WNW 7 13 1010.9 - 0.0 - - - - - - -
24/09:30am 24.2 WNW 7 15 1011.2 - 0.0 - - - - - - -
24/09:00am 22.8 NW 9 15 1011.0 - 0.0 - - - - - - -
24/08:30am 22.8 WNW 7 13 1011.0 - 0.0 - - - - - - -
24/08:00am 22.2 NNW 5 12 1010.6 - 0.0 - - - - - - -
24/07:30am 21.9 N 5 11 1010.5 - 0.0 - - - - - - -
24/07:00am 21.4 CALM 0 4 1010.2 - 0.0 - - - - - - -
24/06:30am 20.9 NNW 4 9 1009.9 - 0.0 - - - - - - -
24/06:00am 21.2 NW 5 10 1009.6 - 0.0 - - - - - - -
24/05:30am 21.1 N 4 8 1009.3 - 0.0 - - - - - - -
24/05:00am 21.3 N 5 9 1008.9 - 0.0 - - - - - - -
24/04:30am 21.3 N 4 9 1008.7 - 0.0 - - - - - - -
24/04:00am 21.3 N 5 9 1008.6 - 0.0 - - - - - - -
24/03:30am 21.2 N 6 12 1008.7 - 0.0 - - - - - - -
24/03:00am 21.0 N 5 10 1009.0 - 0.0 - - - - - - -
24/02:30am 21.1 NNE 4 8 1009.3 - 0.0 - - - - - - -
24/02:00am 21.2 N 4 11 1009.7 - 0.0 - - - - - - -
24/01:30am 21.2 N 4 8 1010.2 - 0.0 - - - - - - -
24/01:00am 21.1 N 3 9 1010.5 - 0.0 - - - - - - -
24/12:30am 21.1 NNE 4 8 1010.8 - 0.0 - - - - - - -
24/12:00am 20.9 NE 6 11 1010.9 - 0.0 - - - - - - -
 
Date/Time
EST
Temp
°C
Wind Pressure Rain since
9am
mm
Weather Cloud Vis
km
Sea
Height
m
Swell
Dir  Spd
kts
Gust
kts
hPa Trend Height
m
Period
s
Dir
23/11:30pm 20.8 NE 7 11 1011.2 - 0.0 - - - - - - -
23/11:00pm 20.7 NE 6 9 1011.5 - 0.0 - - - - - - -
23/10:30pm 20.5 NE 6 9 1011.8 - 0.0 - - - - - - -
23/10:00pm 20.4 NE 5 7 1012.2 - 0.0 - - - - - - -
23/09:30pm 20.6 ENE 5 7 1012.4 - 0.0 - - - - - - -
23/09:00pm 20.9 ENE 5 7 1012.8 - 0.0 - - - - - - -
23/08:30pm 21.1 ENE 5 7 1012.9 - 0.0 - - - - - - -
23/08:00pm 21.1 ENE 6 9 1012.9 - 0.0 - - - - - - -
23/07:30pm 21.3 ENE 6 8 1012.5 - 0.0 - - - - - - -
23/07:00pm 21.4 ENE 5 6 1012.4 - 0.0 - - - - - - -
23/06:30pm 21.5 ENE 5 8 1012.3 - 0.0 - - - - - - -
23/06:00pm 21.5 ENE 6 9 1012.1 - 0.0 - - - - - - -
23/05:30pm 22.0 ENE 7 11 1011.9 - 0.0 - - - - - - -
23/05:00pm 22.3 NE 7 11 1011.6 - 0.0 - - - - - - -
23/04:30pm 22.7 NE 7 11 1011.5 - 0.0 - - - - - - -
23/04:00pm 23.6 NE 8 13 1011.6 - 0.0 - - - - - - -
23/03:30pm 24.2 ENE 8 12 1011.5 - 0.0 - - - - - - -
23/03:00pm 23.3 ENE 8 13 1011.5 - 0.0 - - - - - - -
23/02:30pm 23.4 ENE 8 13 1011.6 - 0.0 - - - - - - -
23/02:00pm 24.6 ENE 9 13 1011.7 - 0.0 - - - - - - -
23/01:30pm 24.5 ENE 8 12 1012.0 - 0.0 - - - - - - -
23/01:00pm 24.9 ENE 10 14 1012.3 - 0.0 - - - - - - -
23/12:30pm 25.9 ENE 9 13 1012.6 - 0.0 - - - - - - -
23/12:00pm 25.0 ENE 7 10 1013.1 - 0.0 - - - - - - -
23/11:30am 25.5 ENE 8 10 1013.8 - 0.0 - - - - - - -
23/11:00am 25.5 ENE 6 11 1014.1 - 0.0 - - - - - - -
23/10:30am 24.9 ENE 7 10 1014.4 - 0.0 - - - - - - -
23/10:00am 24.6 ENE 6 9 1014.6 - 0.0 - - - - - - -
23/09:30am 23.4 ENE 7 12 1014.6 - 0.0 - - - - - - -
23/09:00am 22.8 E 7 10 1014.8 - 0.0 - - - - - - -
23/08:30am 22.1 E 5 9 1014.5 - 0.0 - - - - - - -
23/08:00am 20.5 ESE 6 8 1014.3 - 0.0 - - - - - - -
23/07:30am 19.6 E 7 11 1014.1 - 0.0 - - - - - - -
23/07:00am 18.6 ESE 7 9 1014.3 - 0.0 - - - - - - -
23/06:30am 18.3 SE 8 11 1014.7 - 0.0 - - - - - - -
23/06:00am 18.2 SE 6 9 1014.7 - 0.0 - - - - - - -
23/05:30am 18.7 SSE 5 7 1014.6 - 0.0 - - - - - - -
23/05:00am 18.5 S 6 7 1014.3 - 0.0 - - - - - - -
23/04:30am 18.4 S 5 6 1014.1 - 0.0 - - - - - - -
23/04:00am 18.5 S 5 6 1014.0 - 0.0 - - - - - - -
23/03:30am 18.5 SE 5 6 1013.8 - 0.0 - - - - - - -
23/03:00am 18.6 E 5 6 1013.9 - 0.0 - - - - - - -
23/02:30am 18.7 E 5 6 1014.1 - 0.0 - - - - - - -
23/02:00am 18.7 E 6 7 1014.2 - 0.0 - - - - - - -
23/01:30am 19.0 E 5 6 1014.5 - 0.0 - - - - - - -
23/01:00am 19.0 ESE 4 5 1014.8 - 0.0 - - - - - - -
23/12:30am 19.0 ENE 5 6 1015.1 - 0.0 - - - - - - -
23/12:00am 18.9 E 5 6 1015.2 - 0.0 - - - - - - -
 
Date/Time
EST
Temp
°C
Wind Pressure Rain since
9am
mm
Weather Cloud Vis
km
Sea
Height
m
Swell
Dir  Spd
kts
Gust
kts
hPa Trend Height
m
Period
s
Dir
22/11:30pm 19.0 ENE 6 7 1015.4 - 0.0 - - - - - - -
22/11:00pm 19.0 ENE 5 8 1015.4 - 0.0 - - - - - - -
22/10:30pm 19.2 ENE 6 7 1015.6 - 0.0 - - - - - - -
22/10:00pm 19.4 ENE 5 6 1015.7 - 0.0 - - - - - - -
22/09:30pm 19.4 ENE 7 9 1015.5 - 0.0 - - - - - - -
22/09:00pm 19.6 ENE 7 9 1015.5 - 0.0 - - - - - - -
22/08:30pm 19.6 ENE 6 7 1015.5 - 0.0 - - - - - - -
22/08:00pm 19.7 ENE 6 9 1015.5 - 0.0 - - - - - - -
22/07:30pm 20.0 ENE 7 9 1015.0 - 0.0 - - - - - - -
22/07:00pm 20.2 E 7 10 1014.6 - 0.0 - - - - - - -
22/06:30pm 20.4 ENE 7 9 1014.5 - 0.0 - - - - - - -
22/06:00pm 20.5 ENE 6 9 1014.6 - 0.0 - - - - - - -
22/05:30pm 20.6 ENE 7 9 1014.3 - 0.0 - - - - - - -
22/05:00pm 21.0 E 8 10 1014.2 - 0.0 - - - - - - -
22/04:30pm 21.8 ENE 9 12 1013.8 - 0.0 - - - - - - -
22/04:00pm 22.7 ENE 9 11 1013.9 - 0.0 - - - - - - -
22/03:30pm 23.7 ENE 8 13 1013.7 - 0.0 - - - - - - -
22/03:00pm 24.5 ENE 8 12 1013.8 - 0.0 - - - - - - -
22/02:30pm 24.8 ENE 7 10 1014.1 - 0.0 - - - - - - -
22/02:00pm 25.5 NE 7 12 1014.5 - 0.0 - - - - - - -
22/01:30pm 24.9 ENE 9 12 1014.7 - 0.0 - - - - - - -
22/01:00pm 24.2 ENE 7 11 1015.4 - 0.0 - - - - - - -
22/12:30pm 24.8 ENE 7 11 1015.8 - 0.0 - - - - - - -
22/12:00pm 25.0 ENE 8 12 1016.0 - 0.0 - - - - - - -
22/11:30am 24.3 ENE 7 13 1016.1 - 0.0 - - - - - - -
22/11:00am 24.0 E 9 13 1016.3 - 0.0 - - - - - - -
22/10:30am 24.3 ENE 7 11 1016.8 - 0.0 - - - - - - -
22/10:00am 23.3 E 9 12 1016.7 - 0.0 - - - - - - -
22/09:30am 22.7 E 10 13 1016.8 - 0.0 - - - - - - -
22/09:00am 20.9 ESE 9 15 1016.6 - 0.0 - - - - - - -
22/08:30am 19.8 ESE 7 12 1016.7 - 0.0 - - - - - - -
22/08:00am 18.8 SE 8 13 1016.6 - 0.0 - - - - - - -

Other Formats:

Comma delimited format used in spreadsheet applications
http://www.bom.gov.au/fwo/IDQ60701/IDQ60701.94380.axf

JavaScript Object Notation format (JSON) in row-major order
http://www.bom.gov.au/fwo/IDQ60701/IDQ60701.94380.json